Smit Clyde — CFG7577 — position and weather

sailwx.info

Track history (hours):
 
Tides and Currents Weather Stations Pressure Air Temp Water Temp Dewpoint Dewpoint Depression Visibility Wind Speed Wind Dir Waves Ship Positions

Smit Clyde

Last reported at 2015-Sep-28 05:31 UTC. Time now 2016-Sep-28 01:47 UTC.
Position N 51°28' W 127°51'.
Warning: this ship's position is years out of date!

Length 28 m; draft 6 m.

Type: Towing. MMSI: 316011473.

Date/timePositionNaut miles runAvg speedWind from/ knotsBaromVisibWave heightAir tempDewpointWater temp
2015-Sep-28 05:31N 51°28' W 127°51'1211.5
2015-Sep-28 04:31N 51°17' W 127°53'1111.1
2015-Sep-28 03:33N 51°07' W 127°47'1212.3
2015-Sep-28 02:33N 50°59' W 127°32'1312.9
2015-Sep-28 01:33N 50°50' W 127°17'1412.5
2015-Sep-28 00:27N 50°42' W 126°58'68 9.8
2015-Sep-27 17:30N 50°13' W 125°23'1212.6
2015-Sep-27 16:33N 50°02' W 125°13'1312.9
2015-Sep-27 15:33N 49°53' W 124°60'1312.6
2015-Sep-27 14:33N 49°45' W 124°44'1312.7
2015-Sep-27 13:33N 49°37' W 124°29'1212.5
2015-Sep-27 12:33N 49°31' W 124°12'1212.4
2015-Sep-27 11:33N 49°26' W 123°55'1312.6
2015-Sep-27 10:33N 49°22' W 123°37'1212.1
2015-Sep-27 09:33N 49°19' W 123°19'10 9.9
2015-Sep-27 08:33N 49°17' W 123°04'0 0.0
2015-Sep-27 07:33N 49°17' W 123°04'0 0.0
2015-Sep-27 06:33N 49°17' W 123°04'0 0.0
2015-Sep-27 05:33N 49°17' W 123°04'0 0.0
2015-Sep-27 04:33N 49°17' W 123°04'0 0.0
2015-Sep-27 03:34N 49°17' W 123°04'0 0.0
2015-Sep-27 02:33N 49°17' W 123°04'0 0.0
2015-Sep-27 01:33N 49°17' W 123°04'0 0.0
2015-Sep-27 00:33N 49°17' W 123°04'0 0.0
2015-Sep-26 23:33N 49°17' W 123°04'0 0.0
2015-Sep-26 22:33N 49°17' W 123°04'0 0.0
2015-Sep-26 21:33N 49°17' W 123°04'0 0.0
2015-Sep-26 20:33N 49°17' W 123°04'0 0.0
2015-Sep-26 19:33N 49°17' W 123°04'2 2.4
2015-Sep-26 18:34N 49°18' W 123°07'0 0.1
2015-Sep-26 17:33N 49°19' W 123°07'2 2.5
2015-Sep-26 16:33N 49°17' W 123°04'0 0.0
2015-Sep-26 15:33N 49°17' W 123°04'0 0.0
2015-Sep-26 14:33N 49°17' W 123°04'0 0.0
2015-Sep-26 13:33N 49°17' W 123°04'0 0.0
2015-Sep-26 12:33N 49°17' W 123°04'0 0.0
2015-Sep-26 11:33N 49°17' W 123°04'0 0.0
2015-Sep-26 10:33N 49°17' W 123°04'1 0.8
2015-Sep-26 09:34N 49°18' W 123°03'1 1.1
2015-Sep-26 08:33N 49°18' W 123°05'1 1.1
2015-Sep-26 07:33N 49°17' W 123°04'0 0.0
2015-Sep-26 06:34N 49°17' W 123°04'0 0.0
2015-Sep-26 05:33N 49°17' W 123°04'0 0.0
2015-Sep-26 04:33N 49°17' W 123°04'1 0.7
2015-Sep-26 03:33N 49°18' W 123°03'1 0.7
2015-Sep-26 02:34N 49°17' W 123°04'0 0.0
2015-Sep-26 01:34N 49°17' W 123°04'1 0.6
2015-Sep-26 00:33N 49°17' W 123°05'1 0.6
2015-Sep-25 23:33N 49°17' W 123°04'0 0.0
2015-Sep-25 22:34N 49°17' W 123°04'0 0.0
2015-Sep-25 21:33N 49°17' W 123°04'0 0.0
2015-Sep-25 20:33N 49°17' W 123°04'8 7.6
2015-Sep-25 19:33N 49°17' W 122°52'0 0.1
2015-Sep-25 18:34N 49°17' W 122°52'5 5.2
2015-Sep-25 17:33N 49°18' W 122°60'2 2.4
2015-Sep-25 16:33N 49°17' W 123°04'0 0.0
2015-Sep-25 15:33N 49°17' W 123°04'0 0.0
2015-Sep-25 14:33N 49°17' W 123°04'0 0.0
2015-Sep-25 13:33N 49°17' W 123°04'0 0.0
2015-Sep-25 12:33N 49°17' W 123°04'0 0.0
2015-Sep-25 11:33N 49°17' W 123°04'0 0.0
2015-Sep-25 10:33N 49°17' W 123°04'0 0.0
2015-Sep-25 09:33N 49°17' W 123°04'0 0.0
2015-Sep-25 08:33N 49°17' W 123°04'0 0.0
2015-Sep-25 07:33N 49°17' W 123°04'0 0.0
2015-Sep-25 06:33N 49°17' W 123°04'0 0.0
2015-Sep-25 05:33N 49°17' W 123°04'0 0.0
2015-Sep-25 04:33N 49°17' W 123°04'0 0.0
2015-Sep-25 03:33N 49°17' W 123°04'0 0.0
2015-Sep-25 02:33N 49°17' W 123°04'0 0.0
2015-Sep-25 01:33N 49°17' W 123°04'0 0.0
2015-Sep-25 00:33N 49°17' W 123°04'0 0.0
2015-Sep-24 23:33N 49°17' W 123°04'0 0.0
2015-Sep-24 22:33N 49°17' W 123°04'2 1.6
2015-Sep-24 21:33N 49°18' W 123°06'2 1.6
2015-Sep-24 20:33N 49°17' W 123°04'0 0.0
2015-Sep-24 19:33N 49°17' W 123°04'0 0.0
2015-Sep-24 18:33N 49°17' W 123°04'0 0.0
2015-Sep-24 17:33N 49°17' W 123°04'0 0.0
2015-Sep-24 16:33N 49°17' W 123°04'0 0.0
2015-Sep-24 15:33N 49°17' W 123°04'0 0.0
2015-Sep-24 14:33N 49°17' W 123°04'0 0.0
2015-Sep-24 13:33N 49°17' W 123°04'0 0.0
2015-Sep-24 12:33N 49°17' W 123°04'0 0.0
2015-Sep-24 11:33N 49°17' W 123°04'0 0.0
2015-Sep-24 10:33N 49°17' W 123°04'0 0.0
2015-Sep-24 09:33N 49°17' W 123°04'0 0.0
2015-Sep-24 08:33N 49°17' W 123°04'1 0.7
2015-Sep-24 07:33N 49°17' W 123°05'1 1.2
2015-Sep-24 06:34N 49°18' W 123°06'9 9.3
2015-Sep-24 05:34N 49°23' W 123°18'1413.6
2015-Sep-24 04:33N 49°37' W 123°14'5 4.7
2015-Sep-24 03:29N 49°41' W 123°10'2 1.9
2015-Sep-24 02:33N 49°40' W 123°12'2 1.8
2015-Sep-24 01:33N 49°41' W 123°10'4 3.9
2015-Sep-24 00:33N 49°38' W 123°14'9 9.5
2015-Sep-23 23:34N 49°29' W 123°16'9 8.9
2015-Sep-23 22:33N 49°20' W 123°17'9 8.8
2015-Sep-23 21:33N 49°17' W 123°04'0 0.0
2015-Sep-23 20:34N 49°17' W 123°04'0 0.0
2015-Sep-23 19:34N 49°17' W 123°04'0 0.0
2015-Sep-23 18:34N 49°17' W 123°04'0 0.0
2015-Sep-23 17:34N 49°17' W 123°04'0 0.0
2015-Sep-23 16:33N 49°17' W 123°04'0 0.0
2015-Sep-23 15:34N 49°17' W 123°04'0 0.0
2015-Sep-23 14:33N 49°17' W 123°04'0 0.0
2015-Sep-23 13:33N 49°17' W 123°04'0 0.0
2015-Sep-23 12:33N 49°17' W 123°04'0 0.0
2015-Sep-23 11:34N 49°17' W 123°04'0 0.0
2015-Sep-23 10:33N 49°17' W 123°04'0 0.0
2015-Sep-23 09:34N 49°17' W 123°04'0 0.0
2015-Sep-23 08:34N 49°17' W 123°04'0 0.0
2015-Sep-23 07:33N 49°17' W 123°04'0 0.0
2015-Sep-23 06:34N 49°17' W 123°04'0 0.0
2015-Sep-23 05:34N 49°17' W 123°04'0 0.0
2015-Sep-23 04:33N 49°17' W 123°04'0 0.0
2015-Sep-23 03:33N 49°17' W 123°04'0 0.0
2015-Sep-23 02:33N 49°17' W 123°04'0 0.0
2015-Sep-23 01:34N 49°17' W 123°04'0 0.0
2015-Sep-23 00:34N 49°17' W 123°04'0 0.0
2015-Sep-22 23:34N 49°17' W 123°04'0 0.0
2015-Sep-22 22:33N 49°17' W 123°04'1 0.6
2015-Sep-22 21:33N 49°18' W 123°03'0 0.2
2015-Sep-22 20:34N 49°18' W 123°03'0 0.1
2015-Sep-22 19:33N 49°18' W 123°03'1 0.7
2015-Sep-22 18:33N 49°17' W 123°04'1 0.8
2015-Sep-22 17:33N 49°17' W 123°05'1 0.8
2015-Sep-22 16:33N 49°17' W 123°04'0 0.0
2015-Sep-22 15:34N 49°17' W 123°04'0 0.0
2015-Sep-22 14:34N 49°17' W 123°04'0 0.0
2015-Sep-22 13:34N 49°17' W 123°04'0 0.0
2015-Sep-22 12:33N 49°17' W 123°04'0 0.0
2015-Sep-22 11:34N 49°17' W 123°04'0 0.0
2015-Sep-22 10:34N 49°17' W 123°04'0 0.0
2015-Sep-22 09:33N 49°17' W 123°04'0 0.0
2015-Sep-22 08:34N 49°17' W 123°04'0 0.0
2015-Sep-22 07:34N 49°17' W 123°04'0 0.0
2015-Sep-22 06:33N 49°17' W 123°04'0 0.0
2015-Sep-22 05:34N 49°17' W 123°04'0 0.0
2015-Sep-22 04:34N 49°17' W 123°04'0 0.0
2015-Sep-22 03:34N 49°17' W 123°04'0 0.0
2015-Sep-22 02:33N 49°17' W 123°04'0 0.0
2015-Sep-22 01:33N 49°17' W 123°04'0 0.5
2015-Sep-22 00:33N 49°17' W 123°04'1 1.2
2015-Sep-21 23:34N 49°18' W 123°06'2 1.6
2015-Sep-21 22:33N 49°17' W 123°04'0 0.0
2015-Sep-21 21:34N 49°17' W 123°04'0 0.0
2015-Sep-21 20:34N 49°17' W 123°04'0 0.0
2015-Sep-21 19:34N 49°17' W 123°04'0 0.0
2015-Sep-21 18:33N 49°17' W 123°04'0 0.0
2015-Sep-21 17:33N 49°17' W 123°04'0 0.0
2015-Sep-21 16:33N 49°17' W 123°04'0 0.0
2015-Sep-21 15:34N 49°17' W 123°04'0 0.0
2015-Sep-21 14:34N 49°17' W 123°04'0 0.0
2015-Sep-21 13:33N 49°17' W 123°04'0 0.0
2015-Sep-21 12:34N 49°17' W 123°04'0 0.0
2015-Sep-21 11:33N 49°17' W 123°04'0 0.0
2015-Sep-21 10:33N 49°17' W 123°04'0 0.0
2015-Sep-21 09:34N 49°17' W 123°04'0 0.0
2015-Sep-21 08:33N 49°17' W 123°04'0 0.0
2015-Sep-21 07:34N 49°17' W 123°04'0 0.0
2015-Sep-21 06:33N 49°17' W 123°04'0 0.0
2015-Sep-21 05:34N 49°17' W 123°04'0 0.0
2015-Sep-21 04:33N 49°17' W 123°04'0 0.0
2015-Sep-21 03:33N 49°17' W 123°04'0 0.0
2015-Sep-21 02:34N 49°17' W 123°04'0 0.0
2015-Sep-21 01:34N 49°17' W 123°04'0 0.0
2015-Sep-21 00:33N 49°17' W 123°04'0 0.0
2015-Sep-20 23:33N 49°17' W 123°04'0 0.0
2015-Sep-20 22:34N 49°17' W 123°04'0 0.0
2015-Sep-20 21:33N 49°17' W 123°04'0 0.0
2015-Sep-20 20:33N 49°17' W 123°04'0 0.0
2015-Sep-20 19:33N 49°17' W 123°04'0 0.0
2015-Sep-20 18:34N 49°17' W 123°04'0 0.0
2015-Sep-20 17:34N 49°17' W 123°04'0 0.0
2015-Sep-20 16:34N 49°17' W 123°04'0 0.0
2015-Sep-20 15:33N 49°17' W 123°04'0 0.0
2015-Sep-20 14:33N 49°17' W 123°04'0 0.0
2015-Sep-20 13:33N 49°17' W 123°04'0 0.0
2015-Sep-20 12:33N 49°17' W 123°04'0 0.0
2015-Sep-20 11:34N 49°17' W 123°04'0 0.0
2015-Sep-20 10:33N 49°17' W 123°04'0 0.0
2015-Sep-20 09:34N 49°17' W 123°04'0 0.0
2015-Sep-20 08:33N 49°17' W 123°04'0 0.0
2015-Sep-20 07:34N 49°17' W 123°04'0 0.0
2015-Sep-20 06:34N 49°17' W 123°04'0 0.0
2015-Sep-20 05:33N 49°17' W 123°04'0 0.0
2015-Sep-20 04:33N 49°17' W 123°04'0 0.0
2015-Sep-20 03:34N 49°17' W 123°04'0 0.0
2015-Sep-20 02:33N 49°17' W 123°04'0 0.0
2015-Sep-20 01:34N 49°17' W 123°04'0 0.0
2015-Sep-20 00:34N 49°17' W 123°04'0 0.0
2015-Sep-19 23:33N 49°17' W 123°04'2 1.5
2015-Sep-19 22:33N 49°17' W 123°06'2 1.8
2015-Sep-19 21:33N 49°19' W 123°08'2 2.0
2015-Sep-19 20:34N 49°17' W 123°06'1 1.4
2015-Sep-19 19:34N 49°17' W 123°04'0 0.0
2015-Sep-19 18:33N 49°17' W 123°04'0 0.0
2015-Sep-19 17:34N 49°17' W 123°04'0 0.0
2015-Sep-19 16:34N 49°17' W 123°04'0 0.0
2015-Sep-19 15:33N 49°17' W 123°04'0 0.0
2015-Sep-19 14:33N 49°17' W 123°04'0 0.0
2015-Sep-19 13:33N 49°17' W 123°04'0 0.0
2015-Sep-19 12:33N 49°17' W 123°04'0 0.0
2015-Sep-19 11:33N 49°17' W 123°04'0 0.0
2015-Sep-19 10:33N 49°17' W 123°04'0 0.0
2015-Sep-19 09:34N 49°17' W 123°04'0 0.0
2015-Sep-19 08:33N 49°17' W 123°04'0 0.0
2015-Sep-19 07:33N 49°17' W 123°04'0 0.0
2015-Sep-19 06:34N 49°17' W 123°04'0 0.0
2015-Sep-19 05:33N 49°17' W 123°04'0 0.0
2015-Sep-19 04:34N 49°17' W 123°04'0 0.0
2015-Sep-19 03:34N 49°17' W 123°04'0 0.0
2015-Sep-19 02:33N 49°17' W 123°04'0 0.0
2015-Sep-19 01:34N 49°17' W 123°04'0 0.0
2015-Sep-19 00:33N 49°17' W 123°04'0 0.0
2015-Sep-18 23:33N 49°17' W 123°04'0 0.0
2015-Sep-18 22:33N 49°17' W 123°04'0 0.2
2015-Sep-18 21:34N 49°18' W 123°04'0 0.2
2015-Sep-18 20:33N 49°17' W 123°04'0 0.0
2015-Sep-18 19:33N 49°17' W 123°04'0 0.0
2015-Sep-18 18:34N 49°17' W 123°04'0 0.0
2015-Sep-18 17:33N 49°17' W 123°04'0 0.0
2015-Sep-18 16:33N 49°17' W 123°04'0 0.0
2015-Sep-18 15:34N 49°17' W 123°04'0 0.0
2015-Sep-18 14:34N 49°17' W 123°04'0 0.0
2015-Sep-18 13:34N 49°17' W 123°04'0 0.0
2015-Sep-18 12:34N 49°17' W 123°04'0 0.0
2015-Sep-18 11:34N 49°17' W 123°04'0 0.0
2015-Sep-18 10:33N 49°17' W 123°04'0 0.0
2015-Sep-18 09:34N 49°17' W 123°04'0 0.0
2015-Sep-18 08:33N 49°17' W 123°04'0 0.0
2015-Sep-18 07:34N 49°17' W 123°04'0 0.0
2015-Sep-18 06:33N 49°17' W 123°04'0 0.0
2015-Sep-18 05:33N 49°17' W 123°04'  
Track history (hours):
 
Tides and Currents Weather Stations Pressure Air Temp Water Temp Dewpoint Dewpoint Depression Visibility Wind Speed Wind Dir Waves Ship Positions

Smit Clyde

Last reported at 2015-Sep-28 05:31 UTC. Time now 2016-Sep-28 01:47 UTC.
Position N 51°28' W 127°51'.
Warning: this ship's position is years out of date!

Length 28 m; draft 6 m.

Type: Towing. MMSI: 316011473.

Date/timePositionNaut miles runAvg speedWind from/ knotsBaromVisibWave heightAir tempDewpointWater temp
2015-Sep-28 05:31N 51°28' W 127°51'1211.5
2015-Sep-28 04:31N 51°17' W 127°53'1111.1
2015-Sep-28 03:33N 51°07' W 127°47'1212.3
2015-Sep-28 02:33N 50°59' W 127°32'1312.9
2015-Sep-28 01:33N 50°50' W 127°17'1412.5
2015-Sep-28 00:27N 50°42' W 126°58'68 9.8
2015-Sep-27 17:30N 50°13' W 125°23'1212.6
2015-Sep-27 16:33N 50°02' W 125°13'1312.9
2015-Sep-27 15:33N 49°53' W 124°60'1312.6
2015-Sep-27 14:33N 49°45' W 124°44'1312.7
2015-Sep-27 13:33N 49°37' W 124°29'1212.5
2015-Sep-27 12:33N 49°31' W 124°12'1212.4
2015-Sep-27 11:33N 49°26' W 123°55'1312.6
2015-Sep-27 10:33N 49°22' W 123°37'1212.1
2015-Sep-27 09:33N 49°19' W 123°19'10 9.9
2015-Sep-27 08:33N 49°17' W 123°04'0 0.0
2015-Sep-27 07:33N 49°17' W 123°04'0 0.0
2015-Sep-27 06:33N 49°17' W 123°04'0 0.0
2015-Sep-27 05:33N 49°17' W 123°04'0 0.0
2015-Sep-27 04:33N 49°17' W 123°04'0 0.0
2015-Sep-27 03:34N 49°17' W 123°04'0 0.0
2015-Sep-27 02:33N 49°17' W 123°04'0 0.0
2015-Sep-27 01:33N 49°17' W 123°04'0 0.0
2015-Sep-27 00:33N 49°17' W 123°04'0 0.0
2015-Sep-26 23:33N 49°17' W 123°04'0 0.0
2015-Sep-26 22:33N 49°17' W 123°04'0 0.0
2015-Sep-26 21:33N 49°17' W 123°04'0 0.0
2015-Sep-26 20:33N 49°17' W 123°04'0 0.0
2015-Sep-26 19:33N 49°17' W 123°04'2 2.4
2015-Sep-26 18:34N 49°18' W 123°07'0 0.1
2015-Sep-26 17:33N 49°19' W 123°07'2 2.5
2015-Sep-26 16:33N 49°17' W 123°04'0 0.0
2015-Sep-26 15:33N 49°17' W 123°04'0 0.0
2015-Sep-26 14:33N 49°17' W 123°04'0 0.0
2015-Sep-26 13:33N 49°17' W 123°04'0 0.0
2015-Sep-26 12:33N 49°17' W 123°04'0 0.0
2015-Sep-26 11:33N 49°17' W 123°04'0 0.0
2015-Sep-26 10:33N 49°17' W 123°04'1 0.8
2015-Sep-26 09:34N 49°18' W 123°03'1 1.1
2015-Sep-26 08:33N 49°18' W 123°05'1 1.1
2015-Sep-26 07:33N 49°17' W 123°04'0 0.0
2015-Sep-26 06:34N 49°17' W 123°04'0 0.0
2015-Sep-26 05:33N 49°17' W 123°04'0 0.0
2015-Sep-26 04:33N 49°17' W 123°04'1 0.7
2015-Sep-26 03:33N 49°18' W 123°03'1 0.7
2015-Sep-26 02:34N 49°17' W 123°04'0 0.0
2015-Sep-26 01:34N 49°17' W 123°04'1 0.6
2015-Sep-26 00:33N 49°17' W 123°05'1 0.6
2015-Sep-25 23:33N 49°17' W 123°04'0 0.0
2015-Sep-25 22:34N 49°17' W 123°04'0 0.0
2015-Sep-25 21:33N 49°17' W 123°04'0 0.0
2015-Sep-25 20:33N 49°17' W 123°04'8 7.6
2015-Sep-25 19:33N 49°17' W 122°52'0 0.1
2015-Sep-25 18:34N 49°17' W 122°52'5 5.2
2015-Sep-25 17:33N 49°18' W 122°60'2 2.4
2015-Sep-25 16:33N 49°17' W 123°04'0 0.0
2015-Sep-25 15:33N 49°17' W 123°04'0 0.0
2015-Sep-25 14:33N 49°17' W 123°04'0 0.0
2015-Sep-25 13:33N 49°17' W 123°04'0 0.0
2015-Sep-25 12:33N 49°17' W 123°04'0 0.0
2015-Sep-25 11:33N 49°17' W 123°04'0 0.0
2015-Sep-25 10:33N 49°17' W 123°04'0 0.0
2015-Sep-25 09:33N 49°17' W 123°04'0 0.0
2015-Sep-25 08:33N 49°17' W 123°04'0 0.0
2015-Sep-25 07:33N 49°17' W 123°04'0 0.0
2015-Sep-25 06:33N 49°17' W 123°04'0 0.0
2015-Sep-25 05:33N 49°17' W 123°04'0 0.0
2015-Sep-25 04:33N 49°17' W 123°04'0 0.0
2015-Sep-25 03:33N 49°17' W 123°04'0 0.0
2015-Sep-25 02:33N 49°17' W 123°04'0 0.0
2015-Sep-25 01:33N 49°17' W 123°04'0 0.0
2015-Sep-25 00:33N 49°17' W 123°04'0 0.0
2015-Sep-24 23:33N 49°17' W 123°04'0 0.0
2015-Sep-24 22:33N 49°17' W 123°04'2 1.6
2015-Sep-24 21:33N 49°18' W 123°06'2 1.6
2015-Sep-24 20:33N 49°17' W 123°04'0 0.0
2015-Sep-24 19:33N 49°17' W 123°04'0 0.0
2015-Sep-24 18:33N 49°17' W 123°04'0 0.0
2015-Sep-24 17:33N 49°17' W 123°04'0 0.0
2015-Sep-24 16:33N 49°17' W 123°04'0 0.0
2015-Sep-24 15:33N 49°17' W 123°04'0 0.0
2015-Sep-24 14:33N 49°17' W 123°04'0 0.0
2015-Sep-24 13:33N 49°17' W 123°04'0 0.0
2015-Sep-24 12:33N 49°17' W 123°04'0 0.0
2015-Sep-24 11:33N 49°17' W 123°04'0 0.0
2015-Sep-24 10:33N 49°17' W 123°04'0 0.0
2015-Sep-24 09:33N 49°17' W 123°04'0 0.0
2015-Sep-24 08:33N 49°17' W 123°04'1 0.7
2015-Sep-24 07:33N 49°17' W 123°05'1 1.2
2015-Sep-24 06:34N 49°18' W 123°06'9 9.3
2015-Sep-24 05:34N 49°23' W 123°18'1413.6
2015-Sep-24 04:33N 49°37' W 123°14'5 4.7
2015-Sep-24 03:29N 49°41' W 123°10'2 1.9
2015-Sep-24 02:33N 49°40' W 123°12'2 1.8
2015-Sep-24 01:33N 49°41' W 123°10'4 3.9
2015-Sep-24 00:33N 49°38' W 123°14'9 9.5
2015-Sep-23 23:34N 49°29' W 123°16'9 8.9
2015-Sep-23 22:33N 49°20' W 123°17'9 8.8
2015-Sep-23 21:33N 49°17' W 123°04'0 0.0
2015-Sep-23 20:34N 49°17' W 123°04'0 0.0
2015-Sep-23 19:34N 49°17' W 123°04'0 0.0
2015-Sep-23 18:34N 49°17' W 123°04'0 0.0
2015-Sep-23 17:34N 49°17' W 123°04'0 0.0
2015-Sep-23 16:33N 49°17' W 123°04'0 0.0
2015-Sep-23 15:34N 49°17' W 123°04'0 0.0
2015-Sep-23 14:33N 49°17' W 123°04'0 0.0
2015-Sep-23 13:33N 49°17' W 123°04'0 0.0
2015-Sep-23 12:33N 49°17' W 123°04'0 0.0
2015-Sep-23 11:34N 49°17' W 123°04'0 0.0
2015-Sep-23 10:33N 49°17' W 123°04'0 0.0
2015-Sep-23 09:34N 49°17' W 123°04'0 0.0
2015-Sep-23 08:34N 49°17' W 123°04'0 0.0
2015-Sep-23 07:33N 49°17' W 123°04'0 0.0
2015-Sep-23 06:34N 49°17' W 123°04'0 0.0
2015-Sep-23 05:34N 49°17' W 123°04'0 0.0
2015-Sep-23 04:33N 49°17' W 123°04'0 0.0
2015-Sep-23 03:33N 49°17' W 123°04'0 0.0
2015-Sep-23 02:33N 49°17' W 123°04'0 0.0
2015-Sep-23 01:34N 49°17' W 123°04'0 0.0
2015-Sep-23 00:34N 49°17' W 123°04'0 0.0
2015-Sep-22 23:34N 49°17' W 123°04'0 0.0
2015-Sep-22 22:33N 49°17' W 123°04'1 0.6
2015-Sep-22 21:33N 49°18' W 123°03'0 0.2
2015-Sep-22 20:34N 49°18' W 123°03'0 0.1
2015-Sep-22 19:33N 49°18' W 123°03'1 0.7
2015-Sep-22 18:33N 49°17' W 123°04'1 0.8
2015-Sep-22 17:33N 49°17' W 123°05'1 0.8
2015-Sep-22 16:33N 49°17' W 123°04'0 0.0
2015-Sep-22 15:34N 49°17' W 123°04'0 0.0
2015-Sep-22 14:34N 49°17' W 123°04'0 0.0
2015-Sep-22 13:34N 49°17' W 123°04'0 0.0
2015-Sep-22 12:33N 49°17' W 123°04'0 0.0
2015-Sep-22 11:34N 49°17' W 123°04'0 0.0
2015-Sep-22 10:34N 49°17' W 123°04'0 0.0
2015-Sep-22 09:33N 49°17' W 123°04'0 0.0
2015-Sep-22 08:34N 49°17' W 123°04'0 0.0
2015-Sep-22 07:34N 49°17' W 123°04'0 0.0
2015-Sep-22 06:33N 49°17' W 123°04'0 0.0
2015-Sep-22 05:34N 49°17' W 123°04'0 0.0
2015-Sep-22 04:34N 49°17' W 123°04'0 0.0
2015-Sep-22 03:34N 49°17' W 123°04'0 0.0
2015-Sep-22 02:33N 49°17' W 123°04'0 0.0
2015-Sep-22 01:33N 49°17' W 123°04'0 0.5
2015-Sep-22 00:33N 49°17' W 123°04'1 1.2
2015-Sep-21 23:34N 49°18' W 123°06'2 1.6
2015-Sep-21 22:33N 49°17' W 123°04'0 0.0
2015-Sep-21 21:34N 49°17' W 123°04'0 0.0
2015-Sep-21 20:34N 49°17' W 123°04'0 0.0
2015-Sep-21 19:34N 49°17' W 123°04'0 0.0
2015-Sep-21 18:33N 49°17' W 123°04'0 0.0
2015-Sep-21 17:33N 49°17' W 123°04'0 0.0
2015-Sep-21 16:33N 49°17' W 123°04'0 0.0
2015-Sep-21 15:34N 49°17' W 123°04'0 0.0
2015-Sep-21 14:34N 49°17' W 123°04'0 0.0
2015-Sep-21 13:33N 49°17' W 123°04'0 0.0
2015-Sep-21 12:34N 49°17' W 123°04'0 0.0
2015-Sep-21 11:33N 49°17' W 123°04'0 0.0
2015-Sep-21 10:33N 49°17' W 123°04'0 0.0
2015-Sep-21 09:34N 49°17' W 123°04'0 0.0
2015-Sep-21 08:33N 49°17' W 123°04'0 0.0
2015-Sep-21 07:34N 49°17' W 123°04'0 0.0
2015-Sep-21 06:33N 49°17' W 123°04'0 0.0
2015-Sep-21 05:34N 49°17' W 123°04'0 0.0
2015-Sep-21 04:33N 49°17' W 123°04'0 0.0
2015-Sep-21 03:33N 49°17' W 123°04'0 0.0
2015-Sep-21 02:34N 49°17' W 123°04'0 0.0
2015-Sep-21 01:34N 49°17' W 123°04'0 0.0
2015-Sep-21 00:33N 49°17' W 123°04'0 0.0
2015-Sep-20 23:33N 49°17' W 123°04'0 0.0
2015-Sep-20 22:34N 49°17' W 123°04'0 0.0
2015-Sep-20 21:33N 49°17' W 123°04'0 0.0
2015-Sep-20 20:33N 49°17' W 123°04'0 0.0
2015-Sep-20 19:33N 49°17' W 123°04'0 0.0
2015-Sep-20 18:34N 49°17' W 123°04'0 0.0
2015-Sep-20 17:34N 49°17' W 123°04'0 0.0
2015-Sep-20 16:34N 49°17' W 123°04'0 0.0
2015-Sep-20 15:33N 49°17' W 123°04'0 0.0
2015-Sep-20 14:33N 49°17' W 123°04'0 0.0
2015-Sep-20 13:33N 49°17' W 123°04'0 0.0
2015-Sep-20 12:33N 49°17' W 123°04'0 0.0
2015-Sep-20 11:34N 49°17' W 123°04'0 0.0
2015-Sep-20 10:33N 49°17' W 123°04'0 0.0
2015-Sep-20 09:34N 49°17' W 123°04'0 0.0
2015-Sep-20 08:33N 49°17' W 123°04'0 0.0
2015-Sep-20 07:34N 49°17' W 123°04'0 0.0
2015-Sep-20 06:34N 49°17' W 123°04'0 0.0
2015-Sep-20 05:33N 49°17' W 123°04'0 0.0
2015-Sep-20 04:33N 49°17' W 123°04'0 0.0
2015-Sep-20 03:34N 49°17' W 123°04'0 0.0
2015-Sep-20 02:33N 49°17' W 123°04'0 0.0
2015-Sep-20 01:34N 49°17' W 123°04'0 0.0
2015-Sep-20 00:34N 49°17' W 123°04'0 0.0
2015-Sep-19 23:33N 49°17' W 123°04'2 1.5
2015-Sep-19 22:33N 49°17' W 123°06'2 1.8
2015-Sep-19 21:33N 49°19' W 123°08'2 2.0
2015-Sep-19 20:34N 49°17' W 123°06'1 1.4
2015-Sep-19 19:34N 49°17' W 123°04'0 0.0
2015-Sep-19 18:33N 49°17' W 123°04'0 0.0
2015-Sep-19 17:34N 49°17' W 123°04'0 0.0
2015-Sep-19 16:34N 49°17' W 123°04'0 0.0
2015-Sep-19 15:33N 49°17' W 123°04'0 0.0
2015-Sep-19 14:33N 49°17' W 123°04'0 0.0
2015-Sep-19 13:33N 49°17' W 123°04'0 0.0
2015-Sep-19 12:33N 49°17' W 123°04'0 0.0
2015-Sep-19 11:33N 49°17' W 123°04'0 0.0
2015-Sep-19 10:33N 49°17' W 123°04'0 0.0
2015-Sep-19 09:34N 49°17' W 123°04'0 0.0
2015-Sep-19 08:33N 49°17' W 123°04'0 0.0
2015-Sep-19 07:33N 49°17' W 123°04'0 0.0
2015-Sep-19 06:34N 49°17' W 123°04'0 0.0
2015-Sep-19 05:33N 49°17' W 123°04'0 0.0
2015-Sep-19 04:34N 49°17' W 123°04'0 0.0
2015-Sep-19 03:34N 49°17' W 123°04'0 0.0
2015-Sep-19 02:33N 49°17' W 123°04'0 0.0
2015-Sep-19 01:34N 49°17' W 123°04'0 0.0
2015-Sep-19 00:33N 49°17' W 123°04'0 0.0
2015-Sep-18 23:33N 49°17' W 123°04'0 0.0
2015-Sep-18 22:33N 49°17' W 123°04'0 0.2
2015-Sep-18 21:34N 49°18' W 123°04'0 0.2
2015-Sep-18 20:33N 49°17' W 123°04'0 0.0
2015-Sep-18 19:33N 49°17' W 123°04'0 0.0
2015-Sep-18 18:34N 49°17' W 123°04'0 0.0
2015-Sep-18 17:33N 49°17' W 123°04'0 0.0
2015-Sep-18 16:33N 49°17' W 123°04'0 0.0
2015-Sep-18 15:34N 49°17' W 123°04'0 0.0
2015-Sep-18 14:34N 49°17' W 123°04'0 0.0
2015-Sep-18 13:34N 49°17' W 123°04'0 0.0
2015-Sep-18 12:34N 49°17' W 123°04'0 0.0
2015-Sep-18 11:34N 49°17' W 123°04'0 0.0
2015-Sep-18 10:33N 49°17' W 123°04'0 0.0
2015-Sep-18 09:34N 49°17' W 123°04'0 0.0
2015-Sep-18 08:33N 49°17' W 123°04'0 0.0
2015-Sep-18 07:34N 49°17' W 123°04'0 0.0
2015-Sep-18 06:33N 49°17' W 123°04'0 0.0
2015-Sep-18 05:33N 49°17' W 123°04'  

Dump ship's entire track history